EST,Max TemperatureF,Mean TemperatureF,Min TemperatureF,Max Dew PointF,MeanDew PointF,Min DewpointF,Max Humidity, Mean Humidity, Min Humidity, Max Sea Level PressureIn, Mean Sea Level PressureIn, Min Sea Level PressureIn, Max VisibilityMiles, Mean VisibilityMiles, Min VisibilityMiles, Max Wind SpeedMPH, Mean Wind SpeedMPH, Max Gust SpeedMPH,PrecipitationIn, CloudCover, Events, WindDirDegrees
2013-11-1,57,49,41,56,47,40,96,88,80,29.65,29.25,28.89,10,9,3,22,9,37,0.19,8,Rain,266
2013-11-2,42,39,35,40,34,26,93,79,64,30.16,29.84,29.64,10,10,5,17,8,26,0.02,8,Rain,359
2013-11-3,42,35,28,29,26,25,92,72,51,30.48,30.37,30.17,10,10,10,13,5,16,0.00,5,,111
2013-11-4,47,37,27,34,30,26,92,71,49,30.50,30.40,30.25,10,10,10,23,11,28,0.00,1,,157
2013-11-5,57,50,42,45,40,31,93,77,61,30.29,30.23,30.07,10,10,10,14,7,18,T,7,,197
2013-11-6,56,47,37,54,45,32,100,89,77,30.04,29.79,29.60,10,8,2,18,11,25,0.40,8,Rain,224
2013-11-7,38,35,32,33,31,30,92,84,76,30.06,30.01,29.94,10,10,4,14,7,19,T,8,Snow,263
2013-11-8,38,33,27,30,29,26,100,85,70,30.22,30.16,30.06,10,10,10,12,5,17,T,6,,251
2013-11-9,47,39,31,42,36,28,92,82,71,30.12,29.80,29.65,10,9,5,23,11,32,0.17,8,Rain,205
2013-11-10,43,39,34,36,31,26,92,74,55,30.19,29.98,29.76,10,10,10,28,11,37,0.01,7,Rain,276
2013-11-11,39,32,24,34,25,15,92,73,53,30.32,30.07,29.92,10,8,1,24,12,34,0.04,7,Rain-Snow,298
2013-11-12,30,27,23,19,16,13,75,63,50,30.51,30.45,30.30,10,10,7,23,10,30,T,7,Snow,298
2013-11-13,42,31,20,24,17,11,84,56,27,30.46,30.18,29.91,10,10,10,22,12,30,0.00,1,,225
2013-11-14,49,42,35,31,27,22,70,58,45,29.92,29.89,29.83,10,10,10,18,9,27,0.00,1,,233
2013-11-15,54,46,38,36,33,31,82,66,50,29.99,29.91,29.88,10,10,10,16,7,21,T,3,Rain,213
2013-11-16,53,40,26,49,38,25,92,79,66,30.04,29.88,29.66,10,10,7,24,10,32,0.02,4,Rain,171
2013-11-17,61,53,45,57,53,42,96,91,86,29.64,29.31,28.99,10,8,2,28,16,39,0.94,8,Rain-Thunderstorm,188
2013-11-18,46,39,31,41,28,21,92,73,54,30.08,29.61,29.18,10,9,2,26,16,44,T,8,Rain-Snow,284
2013-11-19,37,30,22,22,19,18,88,68,47,30.43,30.30,30.06,10,10,9,23,7,31,T,4,,312
2013-11-20,42,32,22,31,27,20,96,73,49,30.45,30.38,30.27,10,10,10,21,9,25,0.00,0,,152
2013-11-21,42,38,34,39,35,30,93,85,76,30.27,30.22,30.18,10,9,5,15,3,19,0.02,8,Rain,156
2013-11-22,39,30,20,38,30,18,100,86,72,30.35,30.22,30.13,10,6,0,20,7,27,0.07,7,Fog-Rain-Snow,307
2013-11-23,28,21,14,25,13,6,92,74,56,30.48,30.32,30.17,10,4,0,26,13,37,0.03,7,Fog-Snow,309
2013-11-24,21,15,8,12,8,6,91,74,56,30.55,30.47,30.24,10,9,4,15,7,21,T,5,Snow,273
2013-11-25,32,26,20,26,19,12,85,70,55,30.21,29.98,29.88,10,10,9,23,14,33,T,6,,220
2013-11-26,34,28,22,30,26,15,92,82,72,30.01,29.94,29.89,10,6,2,18,10,24,0.04,8,Snow,284
2013-11-27,22,20,17,17,14,10,91,79,67,30.17,30.01,29.92,10,4,1,23,11,30,0.01,8,Snow,315
2013-11-28,23,14,4,12,9,3,92,72,52,30.48,30.32,30.19,10,10,9,8,3,12,T,6,,259
2013-11-29,31,16,0,21,11,-3,95,79,63,30.67,30.60,30.49,10,10,10,13,3,17,0.00,4,,159
2013-11-30,35,29,23,28,24,20,92,78,64,30.53,30.23,30.03,10,10,9,20,7,25,0.00,7,,176